Time;durP1;ratioP1;P1;durP2;ratioP2;P2;SDS_P1;SDS_P2;PMS_P1;PMS_P2;Temp;Humidity;BMP_temperature;BMP_pressure;BME280_temperature;BME280_humidity;BME280_pressure;Samples;Min_cycle;Max_cycle;Signal;HPM_P1;HPM_P2
2023/12/26 00:00:58;;;;;;;3.45;2.28;;;;;;;;;;5112241;28;20379;-59
2023/12/26 00:03:23;;;;;;;3.13;2.50;;;;;;;;;;5112176;28;20467;-59
2023/12/26 00:05:49;;;;;;;4.82;2.03;;;;;;;;;;5111428;28;20042;-60
2023/12/26 00:08:14;;;;;;;3.83;2.72;;;;;;;;;;5109525;28;20040;-59
2023/12/26 00:10:40;;;;;;;2.95;2.00;;;;;;;;;;5111641;28;20031;-59
2023/12/26 00:13:05;;;;;;;3.72;2.50;;;;;;;;;;5111581;28;20119;-60
2023/12/26 00:15:31;;;;;;;3.05;2.35;;;;;;;;;;5110825;28;20084;-60
2023/12/26 00:17:56;;;;;;;3.10;2.42;;;;;;;;;;5111794;28;20031;-60
2023/12/26 00:20:22;;;;;;;3.15;1.83;;;;;;;;;;5111860;28;20024;-59
2023/12/26 00:22:47;;;;;;;3.70;2.20;;;;;;;;;;5109991;28;20031;-60
2023/12/26 00:25:12;;;;;;;2.90;2.05;;;;;;;;;;5110904;28;20038;-59
2023/12/26 00:27:40;;;;;;;3.13;2.40;;;;;;;;;;5111285;28;20055;-60
2023/12/26 00:30:08;;;;;;;2.75;2.05;;;;;;;;;;5110247;28;20032;-60
2023/12/26 00:32:33;;;;;;;2.83;1.80;;;;;;;;;;5110528;28;20162;-60
2023/12/26 00:34:59;;;;;;;2.53;1.83;;;;;;;;;;5109440;28;20437;-60
2023/12/26 00:37:24;;;;;;;4.30;2.20;;;;;;;;;;5110668;28;20127;-60
2023/12/26 00:39:50;;;;;;;2.88;2.03;;;;;;;;;;5111373;28;20345;-60
2023/12/26 00:42:15;;;;;;;2.00;1.80;;;;;;;;;;5109908;28;20043;-60
2023/12/26 00:44:40;;;;;;;2.35;1.98;;;;;;;;;;5109722;28;20028;-60
2023/12/26 00:47:06;;;;;;;5.07;2.03;;;;;;;;;;5111073;28;20495;-60
2023/12/26 00:49:31;;;;;;;3.55;2.25;;;;;;;;;;5111772;28;20023;-60
2023/12/26 00:51:56;;;;;;;2.92;2.00;;;;;;;;;;5108747;28;20043;-59
2023/12/26 00:54:22;;;;;;;3.03;2.10;;;;;;;;;;5108800;28;20083;-59
2023/12/26 00:56:47;;;;;;;3.17;2.22;;;;;;;;;;5109418;28;20391;-60
2023/12/26 00:59:13;;;;;;;3.38;2.42;;;;;;;;;;5092574;28;20023;-60
2023/12/26 01:01:38;;;;;;;4.25;2.60;;;;;;;;;;5110302;28;20031;-60
2023/12/26 01:04:03;;;;;;;3.45;2.10;;;;;;;;;;5109007;28;21219;-60
2023/12/26 01:06:29;;;;;;;3.88;2.03;;;;;;;;;;5108662;28;20023;-60
2023/12/26 01:08:54;;;;;;;3.47;2.08;;;;;;;;;;5109500;28;20035;-60
2023/12/26 01:11:20;;;;;;;3.28;2.30;;;;;;;;;;5109997;28;20027;-59
2023/12/26 01:13:45;;;;;;;4.18;2.05;;;;;;;;;;5109212;28;20528;-60
2023/12/26 01:16:10;;;;;;;3.55;1.88;;;;;;;;;;5096816;28;20036;-60
2023/12/26 01:18:36;;;;;;;2.90;1.75;;;;;;;;;;5096641;28;20035;-60
2023/12/26 01:21:01;;;;;;;2.45;1.50;;;;;;;;;;5110899;28;20052;-60
2023/12/26 01:23:27;;;;;;;4.15;2.17;;;;;;;;;;5108599;28;20552;-60
2023/12/26 01:25:52;;;;;;;2.63;1.85;;;;;;;;;;5110264;28;20384;-60
2023/12/26 01:28:18;;;;;;;2.83;1.83;;;;;;;;;;5110113;28;20215;-59
2023/12/26 01:30:43;;;;;;;1.85;1.50;;;;;;;;;;5110685;28;20102;-61
2023/12/26 01:33:09;;;;;;;3.80;2.05;;;;;;;;;;5109316;28;20375;-60
2023/12/26 01:35:34;;;;;;;2.33;1.90;;;;;;;;;;5109366;28;20708;-60
2023/12/26 01:38:00;;;;;;;1.92;1.55;;;;;;;;;;5091550;28;20034;-60
2023/12/26 01:40:25;;;;;;;2.13;1.80;;;;;;;;;;5108701;28;20030;-60
2023/12/26 01:42:51;;;;;;;2.33;1.90;;;;;;;;;;5107364;28;20504;-59
2023/12/26 01:45:16;;;;;;;4.00;2.28;;;;;;;;;;5100855;28;20046;-60
2023/12/26 01:47:51;;;;;;;2.67;1.88;;;;;;;;;;5110083;28;20023;-60
2023/12/26 01:50:17;;;;;;;3.30;2.25;;;;;;;;;;5095236;28;20039;-58
2023/12/26 01:52:43;;;;;;;2.10;1.80;;;;;;;;;;5105164;28;20054;-60
2023/12/26 01:55:11;;;;;;;2.38;1.90;;;;;;;;;;5109466;28;20403;-60
2023/12/26 01:57:39;;;;;;;3.15;2.00;;;;;;;;;;5115083;28;20027;-60
2023/12/26 02:00:06;;;;;;;2.22;1.80;;;;;;;;;;5114465;28;20073;-60
2023/12/26 02:02:33;;;;;;;5.50;2.80;;;;;;;;;;5112185;28;20043;-60
2023/12/26 02:05:00;;;;;;;3.28;2.25;;;;;;;;;;5113148;28;20097;-60
2023/12/26 02:07:25;;;;;;;4.43;2.00;;;;;;;;;;5107336;28;20024;-60
2023/12/26 02:09:51;;;;;;;3.65;2.65;;;;;;;;;;5099729;28;20039;-60
2023/12/26 02:12:17;;;;;;;3.83;2.55;;;;;;;;;;5115023;28;20160;-60
2023/12/26 02:14:44;;;;;;;3.50;2.53;;;;;;;;;;5113766;28;20032;-59
2023/12/26 02:17:15;;;;;;;2.78;2.17;;;;;;;;;;5114920;28;20028;-60
2023/12/26 02:19:42;;;;;;;3.67;2.60;;;;;;;;;;5096267;28;20034;-60
2023/12/26 02:22:07;;;;;;;3.00;2.00;;;;;;;;;;5093573;28;20052;-60
2023/12/26 02:24:33;;;;;;;3.85;2.72;;;;;;;;;;5094185;28;20028;-60
2023/12/26 02:26:59;;;;;;;3.92;2.88;;;;;;;;;;5094676;28;20032;-60
2023/12/26 02:29:25;;;;;;;3.35;2.30;;;;;;;;;;5084105;28;20043;-59
2023/12/26 02:31:54;;;;;;;3.47;2.17;;;;;;;;;;5074670;28;20020;-59
2023/12/26 02:34:21;;;;;;;5.32;2.47;;;;;;;;;;5077311;28;20111;-58
2023/12/26 02:36:47;;;;;;;3.83;2.55;;;;;;;;;;5094815;28;20044;-59
2023/12/26 02:39:14;;;;;;;2.67;1.95;;;;;;;;;;5092922;28;20101;-60
2023/12/26 02:41:39;;;;;;;1.98;1.65;;;;;;;;;;5093860;28;20145;-59
2023/12/26 02:44:05;;;;;;;3.33;2.30;;;;;;;;;;5094468;28;20028;-60
2023/12/26 02:46:31;;;;;;;4.15;2.60;;;;;;;;;;5093530;28;20032;-59
2023/12/26 02:48:56;;;;;;;2.28;1.77;;;;;;;;;;5094729;28;20055;-60
2023/12/26 02:51:21;;;;;;;2.55;1.83;;;;;;;;;;5093304;28;20496;-60
2023/12/26 02:53:47;;;;;;;3.28;2.22;;;;;;;;;;5094230;28;20061;-60
2023/12/26 02:56:12;;;;;;;2.63;2.10;;;;;;;;;;5094208;28;20028;-60
2023/12/26 02:58:38;;;;;;;2.90;1.77;;;;;;;;;;5086779;28;20357;-60
2023/12/26 03:01:04;;;;;;;3.35;1.98;;;;;;;;;;5089401;28;20028;-60
2023/12/26 03:03:29;;;;;;;2.63;2.20;;;;;;;;;;5093516;28;20035;-60
2023/12/26 03:05:55;;;;;;;2.85;2.15;;;;;;;;;;5093703;28;20024;-61
2023/12/26 03:08:20;;;;;;;2.47;1.80;;;;;;;;;;5093435;28;20483;-60
2023/12/26 03:10:46;;;;;;;2.22;1.85;;;;;;;;;;5092030;28;20396;-60
2023/12/26 03:13:11;;;;;;;2.67;1.80;;;;;;;;;;5094143;28;20388;-61
2023/12/26 03:15:37;;;;;;;3.67;2.05;;;;;;;;;;5093168;28;20542;-61
2023/12/26 03:18:02;;;;;;;3.40;2.20;;;;;;;;;;5091278;28;20031;-61
2023/12/26 03:20:28;;;;;;;1.73;1.60;;;;;;;;;;5096008;28;20066;-61
2023/12/26 03:22:53;;;;;;;2.55;1.55;;;;;;;;;;5113984;28;20123;-60
2023/12/26 03:25:19;;;;;;;2.38;1.80;;;;;;;;;;5114264;28;20034;-61
2023/12/26 03:27:44;;;;;;;2.67;1.70;;;;;;;;;;5113380;28;20947;-60
2023/12/26 03:30:10;;;;;;;3.25;1.90;;;;;;;;;;5114231;28;20027;-61
2023/12/26 03:32:35;;;;;;;1.58;1.48;;;;;;;;;;5097572;28;20064;-61
2023/12/26 03:35:01;;;;;;;1.67;1.48;;;;;;;;;;5079311;28;20034;-61
2023/12/26 03:37:27;;;;;;;2.40;1.73;;;;;;;;;;5112550;28;20042;-60
2023/12/26 03:39:52;;;;;;;2.65;1.70;;;;;;;;;;5113957;28;20031;-61
2023/12/26 03:42:18;;;;;;;3.03;2.08;;;;;;;;;;5113583;28;20443;-61
2023/12/26 03:44:46;;;;;;;5.22;2.72;;;;;;;;;;5112941;28;20028;-61
2023/12/26 03:47:12;;;;;;;3.30;2.25;;;;;;;;;;5084473;28;20032;-61
2023/12/26 03:49:37;;;;;;;4.47;2.50;;;;;;;;;;5092863;28;20028;-60
2023/12/26 03:52:03;;;;;;;5.05;2.85;;;;;;;;;;5097518;28;20383;-61
2023/12/26 03:54:29;;;;;;;3.33;2.10;;;;;;;;;;5112528;28;20030;-60
2023/12/26 03:56:54;;;;;;;3.08;2.40;;;;;;;;;;5113763;28;20104;-61
2023/12/26 03:59:19;;;;;;;3.97;2.45;;;;;;;;;;5112851;28;20123;-61
2023/12/26 04:01:46;;;;;;;4.32;2.55;;;;;;;;;;5111933;28;20679;-61
2023/12/26 04:04:12;;;;;;;3.50;2.40;;;;;;;;;;5113552;28;20079;-61
2023/12/26 04:06:37;;;;;;;2.97;2.38;;;;;;;;;;5112438;28;20035;-61
2023/12/26 04:09:03;;;;;;;3.85;2.40;;;;;;;;;;5111879;28;20508;-60
2023/12/26 04:11:30;;;;;;;5.72;2.80;;;;;;;;;;5110257;28;20036;-59
2023/12/26 04:13:55;;;;;;;3.28;2.25;;;;;;;;;;5107125;28;20027;-60
2023/12/26 04:16:21;;;;;;;4.32;2.80;;;;;;;;;;5098989;28;20043;-60
2023/12/26 04:18:46;;;;;;;3.67;2.42;;;;;;;;;;5092068;28;20023;-60
2023/12/26 04:21:12;;;;;;;4.70;2.33;;;;;;;;;;5074307;28;20139;-61
2023/12/26 04:23:37;;;;;;;4.35;2.70;;;;;;;;;;5111185;28;20459;-60
2023/12/26 04:26:03;;;;;;;5.55;2.42;;;;;;;;;;5112866;28;20371;-61
2023/12/26 04:28:28;;;;;;;6.00;3.00;;;;;;;;;;5112399;28;20063;-60
2023/12/26 04:30:53;;;;;;;3.53;2.40;;;;;;;;;;5112667;28;20089;-61
2023/12/26 04:33:19;;;;;;;3.38;2.25;;;;;;;;;;5112331;28;20058;-61
2023/12/26 04:35:45;;;;;;;4.80;2.80;;;;;;;;;;5111178;28;20127;-60
2023/12/26 04:38:12;;;;;;;3.83;2.50;;;;;;;;;;5112915;28;20372;-61
2023/12/26 04:40:37;;;;;;;4.45;2.90;;;;;;;;;;5110905;28;20373;-59
2023/12/26 04:43:05;;;;;;;5.55;2.97;;;;;;;;;;5112356;28;20038;-60
2023/12/26 04:45:31;;;;;;;5.18;3.05;;;;;;;;;;5111786;28;20019;-60
2023/12/26 04:47:56;;;;;;;3.35;2.42;;;;;;;;;;5112702;28;20051;-61
2023/12/26 04:50:21;;;;;;;5.03;3.13;;;;;;;;;;5112263;28;20053;-60
2023/12/26 04:52:47;;;;;;;3.42;2.10;;;;;;;;;;5104332;28;20611;-60
2023/12/26 04:55:12;;;;;;;6.88;3.67;;;;;;;;;;5092188;28;20032;-61
2023/12/26 04:57:38;;;;;;;7.13;3.97;;;;;;;;;;5091379;28;20024;-60
2023/12/26 05:00:03;;;;;;;7.05;4.18;;;;;;;;;;5111139;28;20039;-59
2023/12/26 05:02:29;;;;;;;6.30;4.15;;;;;;;;;;5110668;28;20032;-59
2023/12/26 05:04:55;;;;;;;6.55;4.30;;;;;;;;;;5111823;28;20459;-60
2023/12/26 05:07:20;;;;;;;6.15;3.85;;;;;;;;;;5112451;28;20357;-60
2023/12/26 05:09:46;;;;;;;8.73;4.53;;;;;;;;;;5110942;28;20019;-60
2023/12/26 05:12:11;;;;;;;7.72;5.10;;;;;;;;;;5110626;28;20046;-60
2023/12/26 05:14:38;;;;;;;7.85;3.80;;;;;;;;;;5097133;28;20059;-60
2023/12/26 05:17:03;;;;;;;6.75;4.13;;;;;;;;;;5092288;28;20542;-60
2023/12/26 05:19:28;;;;;;;6.63;4.35;;;;;;;;;;5091776;28;20058;-61
2023/12/26 05:21:54;;;;;;;7.50;3.60;;;;;;;;;;5091553;28;20044;-60
2023/12/26 05:24:19;;;;;;;6.03;3.20;;;;;;;;;;5100405;28;20376;-60
2023/12/26 05:26:45;;;;;;;6.28;3.13;;;;;;;;;;5110864;28;20039;-60
2023/12/26 05:29:10;;;;;;;5.57;2.80;;;;;;;;;;5117027;28;20084;-61
2023/12/26 05:31:38;;;;;;;5.20;2.97;;;;;;;;;;5118237;28;20073;-60
2023/12/26 05:34:05;;;;;;;7.88;3.05;;;;;;;;;;5116288;28;21782;-60
2023/12/26 05:36:31;;;;;;;3.95;2.33;;;;;;;;;;5098151;28;20043;-60
2023/12/26 05:38:57;;;;;;;6.18;2.40;;;;;;;;;;5108548;28;20035;-60
2023/12/26 05:41:23;;;;;;;7.60;2.35;;;;;;;;;;5117284;28;20023;-60
2023/12/26 05:43:48;;;;;;;4.93;2.08;;;;;;;;;;5117259;28;20019;-60
2023/12/26 05:46:14;;;;;;;2.80;2.15;;;;;;;;;;5118507;28;20077;-60
2023/12/26 05:48:43;;;;;;;11.75;2.80;;;;;;;;;;5117780;28;20062;-60
2023/12/26 05:51:08;;;;;;;4.80;2.40;;;;;;;;;;5118390;28;20062;-60
2023/12/26 05:53:33;;;;;;;7.95;2.60;;;;;;;;;;5103391;28;20059;-59
2023/12/26 05:55:59;;;;;;;12.70;2.42;;;;;;;;;;5104684;28;20027;-60
2023/12/26 05:58:25;;;;;;;5.75;2.17;;;;;;;;;;5118862;28;20019;-60
2023/12/26 06:00:51;;;;;;;5.00;1.85;;;;;;;;;;5099861;28;20032;-60
2023/12/26 06:03:16;;;;;;;2.63;1.42;;;;;;;;;;5118714;28;20107;-59
2023/12/26 06:05:42;;;;;;;4.57;1.63;;;;;;;;;;5117003;28;20102;-58
2023/12/26 06:08:07;;;;;;;4.13;1.70;;;;;;;;;;5118369;28;20040;-59
2023/12/26 06:10:33;;;;;;;5.05;2.08;;;;;;;;;;5118317;28;20110;-59
2023/12/26 06:12:58;;;;;;;5.47;1.60;;;;;;;;;;5117483;28;20036;-59
2023/12/26 06:15:24;;;;;;;4.18;1.50;;;;;;;;;;5118516;28;20023;-60
2023/12/26 06:17:50;;;;;;;6.68;1.50;;;;;;;;;;5117826;28;20035;-59
2023/12/26 06:20:15;;;;;;;4.68;1.50;;;;;;;;;;5118446;28;20038;-59
2023/12/26 06:22:41;;;;;;;3.67;1.27;;;;;;;;;;5117144;28;20159;-60
2023/12/26 06:25:07;;;;;;;4.50;1.30;;;;;;;;;;5117963;28;20110;-59
2023/12/26 06:27:32;;;;;;;2.70;1.20;;;;;;;;;;5118185;28;20071;-59
2023/12/26 06:29:58;;;;;;;3.28;1.20;;;;;;;;;;5117794;28;20034;-60
2023/12/26 06:32:23;;;;;;;3.60;1.30;;;;;;;;;;5118583;28;20089;-60
2023/12/26 06:34:48;;;;;;;4.55;1.15;;;;;;;;;;5104492;28;20032;-59
2023/12/26 06:37:14;;;;;;;7.82;2.20;;;;;;;;;;5115099;28;20062;-60
2023/12/26 06:39:39;;;;;;;5.55;1.27;;;;;;;;;;5115988;28;20059;-59
2023/12/26 06:42:05;;;;;;;7.45;2.00;;;;;;;;;;5115320;28;20031;-59
2023/12/26 06:44:30;;;;;;;4.55;1.35;;;;;;;;;;5114681;28;20379;-59
2023/12/26 06:46:56;;;;;;;3.50;1.13;;;;;;;;;;5114124;28;20203;-59
2023/12/26 06:49:21;;;;;;;6.30;1.40;;;;;;;;;;5115267;28;20028;-60
2023/12/26 06:51:47;;;;;;;4.75;1.73;;;;;;;;;;5112510;28;20027;-60
2023/12/26 06:54:12;;;;;;;4.55;1.42;;;;;;;;;;5114233;28;20096;-60
2023/12/26 06:56:38;;;;;;;2.70;1.02;;;;;;;;;;5093281;28;20035;-59
2023/12/26 06:59:03;;;;;;;3.60;1.27;;;;;;;;;;5094592;28;20377;-60
2023/12/26 07:01:29;;;;;;;3.50;1.40;;;;;;;;;;5094404;28;20471;-60
2023/12/26 07:03:54;;;;;;;3.30;0.88;;;;;;;;;;5093608;28;20039;-60
2023/12/26 07:06:19;;;;;;;2.45;1.00;;;;;;;;;;5104347;28;20031;-60
2023/12/26 07:08:45;;;;;;;5.28;1.15;;;;;;;;;;5113612;28;20019;-60
2023/12/26 07:11:11;;;;;;;4.30;1.10;;;;;;;;;;5114448;28;20028;-59
2023/12/26 07:13:36;;;;;;;4.20;1.20;;;;;;;;;;5114311;28;20102;-58
2023/12/26 07:16:02;;;;;;;6.57;1.40;;;;;;;;;;5105281;28;20036;-61
2023/12/26 07:18:27;;;;;;;4.88;1.90;;;;;;;;;;5094257;28;20085;-61
2023/12/26 07:20:52;;;;;;;4.22;1.02;;;;;;;;;;5108630;28;20089;-61
2023/12/26 07:23:18;;;;;;;2.30;0.77;;;;;;;;;;5113776;28;20031;-61
2023/12/26 07:25:43;;;;;;;6.82;1.08;;;;;;;;;;5112635;28;20131;-61
2023/12/26 07:28:10;;;;;;;5.13;1.20;;;;;;;;;;5114333;28;20027;-61
2023/12/26 07:30:38;;;;;;;3.92;1.05;;;;;;;;;;5114017;28;20118;-59
2023/12/26 07:33:04;;;;;;;5.43;1.08;;;;;;;;;;5114052;28;20073;-59
2023/12/26 07:35:30;;;;;;;8.57;1.63;;;;;;;;;;5112271;28;20040;-59
2023/12/26 07:37:56;;;;;;;3.70;1.27;;;;;;;;;;5111549;28;20073;-61
2023/12/26 07:40:21;;;;;;;4.93;0.95;;;;;;;;;;5114127;28;20028;-60
2023/12/26 07:42:47;;;;;;;3.30;1.38;;;;;;;;;;5112589;28;20037;-60
2023/12/26 07:45:12;;;;;;;7.63;1.67;;;;;;;;;;5113706;28;20027;-60
2023/12/26 07:47:38;;;;;;;6.90;1.13;;;;;;;;;;5112698;28;20046;-60
2023/12/26 07:50:03;;;;;;;6.55;1.20;;;;;;;;;;5113034;28;20103;-61
2023/12/26 07:52:29;;;;;;;5.25;1.30;;;;;;;;;;5112993;28;20080;-61
2023/12/26 07:54:54;;;;;;;4.22;1.58;;;;;;;;;;5112109;28;20058;-60
2023/12/26 07:57:19;;;;;;;5.80;1.45;;;;;;;;;;5110785;28;20099;-60
2023/12/26 07:59:45;;;;;;;4.72;1.02;;;;;;;;;;5111819;28;20473;-60
2023/12/26 08:02:10;;;;;;;3.58;1.00;;;;;;;;;;5113411;28;20027;-59
2023/12/26 08:04:36;;;;;;;7.28;1.50;;;;;;;;;;5113286;28;20124;-59
2023/12/26 08:07:01;;;;;;;5.25;1.30;;;;;;;;;;5112331;28;20032;-59
2023/12/26 08:09:27;;;;;;;2.65;1.10;;;;;;;;;;5113523;28;20026;-59
2023/12/26 08:11:52;;;;;;;4.25;1.15;;;;;;;;;;5112353;28;20115;-59
2023/12/26 08:14:18;;;;;;;2.50;1.10;;;;;;;;;;5113400;28;20035;-59
2023/12/26 08:16:45;;;;;;;5.50;1.17;;;;;;;;;;5112456;28;20031;-61
2023/12/26 08:19:10;;;;;;;7.18;1.25;;;;;;;;;;5110637;28;20454;-59
2023/12/26 08:21:36;;;;;;;8.60;1.55;;;;;;;;;;5101521;28;20127;-60
2023/12/26 08:24:02;;;;;;;6.35;1.83;;;;;;;;;;5091987;28;20035;-59
2023/12/26 08:26:33;;;;;;;7.90;1.45;;;;;;;;;;5098789;28;20532;-60
2023/12/26 08:28:59;;;;;;;3.53;1.13;;;;;;;;;;5112263;28;20087;-60
2023/12/26 08:31:24;;;;;;;6.80;1.45;;;;;;;;;;5112276;28;20036;-60
2023/12/26 08:33:50;;;;;;;4.22;1.02;;;;;;;;;;5106714;28;20028;-59
2023/12/26 08:36:15;;;;;;;4.68;1.30;;;;;;;;;;5092174;28;20102;-61
2023/12/26 08:38:42;;;;;;;8.60;1.40;;;;;;;;;;5092240;28;20055;-60
2023/12/26 08:41:09;;;;;;;8.40;1.45;;;;;;;;;;5098675;28;20114;-61
2023/12/26 08:43:35;;;;;;;3.17;1.33;;;;;;;;;;5112844;28;20071;-62
2023/12/26 08:46:01;;;;;;;3.08;1.00;;;;;;;;;;5111267;28;20062;-59
2023/12/26 08:48:26;;;;;;;3.80;1.35;;;;;;;;;;5098694;28;20059;-59
2023/12/26 08:50:52;;;;;;;5.50;1.27;;;;;;;;;;5110660;28;20070;-58
2023/12/26 08:53:18;;;;;;;7.40;1.10;;;;;;;;;;5111916;28;20028;-59
2023/12/26 08:55:45;;;;;;;4.82;1.27;;;;;;;;;;5110509;28;20073;-60
2023/12/26 08:58:11;;;;;;;6.20;1.23;;;;;;;;;;5112429;28;20388;-60
2023/12/26 09:00:37;;;;;;;3.38;1.02;;;;;;;;;;5112489;28;20035;-60
2023/12/26 09:03:02;;;;;;;10.77;1.60;;;;;;;;;;5111181;28;20015;-60
2023/12/26 09:05:28;;;;;;;1.52;1.00;;;;;;;;;;5111295;28;20115;-60
2023/12/26 09:07:53;;;;;;;6.60;1.55;;;;;;;;;;5111470;28;20031;-62
2023/12/26 09:10:19;;;;;;;9.20;2.15;;;;;;;;;;5111558;28;20376;-61
2023/12/26 09:12:44;;;;;;;3.90;1.10;;;;;;;;;;5111809;28;20384;-61
2023/12/26 09:15:10;;;;;;;4.03;1.00;;;;;;;;;;5112453;28;20375;-62
2023/12/26 09:17:36;;;;;;;4.18;1.10;;;;;;;;;;5111907;28;20031;-60
2023/12/26 09:20:02;;;;;;;6.32;1.67;;;;;;;;;;5111772;28;20280;-61
2023/12/26 09:22:28;;;;;;;6.13;1.45;;;;;;;;;;5112547;28;20043;-61
2023/12/26 09:24:53;;;;;;;4.60;1.35;;;;;;;;;;5109490;28;20490;-60
2023/12/26 09:27:19;;;;;;;3.03;1.00;;;;;;;;;;5111376;28;20028;-61
2023/12/26 09:29:44;;;;;;;6.65;1.40;;;;;;;;;;5111557;28;20035;-60
2023/12/26 09:32:10;;;;;;;7.47;1.45;;;;;;;;;;5111884;28;20088;-61
2023/12/26 09:34:35;;;;;;;5.78;1.25;;;;;;;;;;5112248;28;20059;-61
2023/12/26 09:37:00;;;;;;;2.83;1.10;;;;;;;;;;5092831;28;20031;-61
2023/12/26 09:39:26;;;;;;;5.00;1.63;;;;;;;;;;5111418;28;20479;-60
2023/12/26 09:41:52;;;;;;;4.38;1.00;;;;;;;;;;5111223;28;20031;-60
2023/12/26 09:44:19;;;;;;;4.20;1.27;;;;;;;;;;5112128;28;20038;-62
2023/12/26 09:46:44;;;;;;;5.80;1.40;;;;;;;;;;5111485;28;20028;-60
2023/12/26 09:49:10;;;;;;;5.93;1.15;;;;;;;;;;5111846;28;20051;-61
2023/12/26 09:51:40;;;;;;;7.68;1.85;;;;;;;;;;5112359;28;20024;-61
2023/12/26 09:54:07;;;;;;;5.93;1.00;;;;;;;;;;5110882;28;20027;-61
2023/12/26 09:56:37;;;;;;;6.47;1.50;;;;;;;;;;5112451;28;20093;-61
2023/12/26 09:59:03;;;;;;;8.07;2.25;;;;;;;;;;5111297;28;20032;-61
2023/12/26 10:01:29;;;;;;;9.35;1.63;;;;;;;;;;5111986;28;20028;-61
2023/12/26 10:03:56;;;;;;;6.50;1.48;;;;;;;;;;5111097;28;20093;-61
2023/12/26 10:06:22;;;;;;;11.23;1.55;;;;;;;;;;5111965;28;20031;-61
2023/12/26 10:08:47;;;;;;;4.65;1.63;;;;;;;;;;5110551;28;20375;-59
2023/12/26 10:11:13;;;;;;;6.18;1.50;;;;;;;;;;5092870;28;20080;-62
2023/12/26 10:13:50;;;;;;;6.43;1.67;;;;;;;;;;5111851;28;20035;-61
2023/12/26 10:16:16;;;;;;;3.92;1.60;;;;;;;;;;5114618;28;20067;-61
2023/12/26 10:18:42;;;;;;;6.80;1.73;;;;;;;;;;5115627;28;20036;-61
2023/12/26 10:21:07;;;;;;;4.50;1.55;;;;;;;;;;5114540;28;20054;-62
2023/12/26 10:23:34;;;;;;;7.80;1.58;;;;;;;;;;5115707;28;20070;-62
2023/12/26 10:25:59;;;;;;;6.03;1.63;;;;;;;;;;5113394;28;20105;-61
2023/12/26 10:28:25;;;;;;;4.65;1.48;;;;;;;;;;5114484;28;20039;-61
2023/12/26 10:30:50;;;;;;;5.50;1.40;;;;;;;;;;5113429;28;20035;-59
2023/12/26 10:33:28;;;;;;;3.33;1.63;;;;;;;;;;5114647;28;20122;-60
2023/12/26 10:36:07;;;;;;;6.15;1.80;;;;;;;;;;5110998;28;20032;-60
2023/12/26 10:38:33;;;;;;;4.63;1.60;;;;;;;;;;5115166;28;20024;-60
2023/12/26 10:41:04;;;;;;;5.82;1.80;;;;;;;;;;5114442;28;20380;-60
2023/12/26 10:43:32;;;;;;;6.80;1.90;;;;;;;;;;5114883;28;20023;-61
2023/12/26 10:45:59;;;;;;;8.18;1.90;;;;;;;;;;5114146;28;20063;-60
2023/12/26 10:48:33;;;;;;;4.28;1.45;;;;;;;;;;5115071;28;20024;-60
2023/12/26 10:51:01;;;;;;;7.28;1.80;;;;;;;;;;5111713;28;20042;-62
2023/12/26 10:54:04;;;;;;;13.10;2.17;;;;;;;;;;5114704;28;20035;-62
2023/12/26 10:56:32;;;;;;;10.30;1.80;;;;;;;;;;5054828;28;20039;-62
2023/12/26 10:58:58;;;;;;;5.40;1.55;;;;;;;;;;5113855;28;20114;-62
2023/12/26 13:52:54;;;;;;;9.23;1.80;;;;;;;;;;5095881;28;20035;-61
2023/12/26 13:55:20;;;;;;;5.70;1.63;;;;;;;;;;5114877;28;20660;-62
2023/12/26 13:57:45;;;;;;;8.23;2.20;;;;;;;;;;5106738;28;20093;-61
2023/12/26 14:00:12;;;;;;;6.93;1.90;;;;;;;;;;5106399;28;20084;-61
2023/12/26 14:02:38;;;;;;;10.20;2.20;;;;;;;;;;5109591;28;20536;-62
2023/12/26 14:05:03;;;;;;;10.65;1.90;;;;;;;;;;5113219;28;20123;-60
2023/12/26 14:07:28;;;;;;;9.40;2.30;;;;;;;;;;5110163;28;20036;-60
2023/12/26 14:09:54;;;;;;;3.90;1.83;;;;;;;;;;5102753;28;20036;-62
2023/12/26 14:12:19;;;;;;;7.70;1.90;;;;;;;;;;5104892;28;20047;-62
2023/12/26 14:15:22;;;;;;;8.30;1.80;;;;;;;;;;5104794;28;20024;-62
2023/12/26 14:18:25;;;;;;;6.90;1.60;;;;;;;;;;5105550;28;20089;-62
2023/12/26 14:21:28;;;;;;;5.88;1.85;;;;;;;;;;5104526;28;20086;-62
2023/12/26 14:24:30;;;;;;;4.05;1.33;;;;;;;;;;5103766;28;20027;-62
2023/12/26 14:27:33;;;;;;;3.65;1.60;;;;;;;;;;5105616;28;20028;-62
2023/12/26 14:30:36;;;;;;;6.15;2.10;;;;;;;;;;5108371;28;20180;-61
2023/12/26 14:33:38;;;;;;;10.38;2.03;;;;;;;;;;5105286;28;20039;-63
2023/12/26 14:36:41;;;;;;;6.50;1.80;;;;;;;;;;5105531;28;20080;-62
2023/12/26 14:39:44;;;;;;;6.35;1.80;;;;;;;;;;5100459;28;20055;-62
2023/12/26 14:42:47;;;;;;;8.18;2.40;;;;;;;;;;5101201;28;20101;-62
2023/12/26 14:45:49;;;;;;;7.50;2.22;;;;;;;;;;5105847;28;20040;-62
2023/12/26 14:48:52;;;;;;;6.13;2.20;;;;;;;;;;5100470;28;20365;-62
2023/12/26 14:51:55;;;;;;;6.38;2.10;;;;;;;;;;5113000;28;20074;-62
2023/12/26 14:54:58;;;;;;;5.25;2.05;;;;;;;;;;5109311;28;20468;-61
2023/12/26 14:58:00;;;;;;;14.20;2.33;;;;;;;;;;5093584;28;20116;-61
2023/12/26 15:01:03;;;;;;;11.18;1.88;;;;;;;;;;5089068;28;20073;-62
2023/12/26 15:03:29;;;;;;;6.38;1.95;;;;;;;;;;5093838;28;20501;-62
2023/12/26 15:05:55;;;;;;;8.85;1.73;;;;;;;;;;5083015;28;20032;-61
2023/12/26 15:08:21;;;;;;;9.57;1.90;;;;;;;;;;5094730;28;20039;-60
2023/12/26 15:10:46;;;;;;;10.10;1.83;;;;;;;;;;5113873;28;20513;-60
2023/12/26 15:13:11;;;;;;;11.32;2.05;;;;;;;;;;5113359;28;20520;-62
2023/12/26 15:15:37;;;;;;;9.38;2.15;;;;;;;;;;5114282;28;20472;-60
2023/12/26 15:18:02;;;;;;;7.53;2.00;;;;;;;;;;5095750;28;20062;-63
2023/12/26 15:20:28;;;;;;;11.02;2.17;;;;;;;;;;5111663;28;20391;-60
2023/12/26 15:22:53;;;;;;;5.80;2.25;;;;;;;;;;5114112;28;20376;-62
2023/12/26 15:25:19;;;;;;;9.52;2.50;;;;;;;;;;5113563;28;20031;-62
2023/12/26 15:27:48;;;;;;;7.35;1.73;;;;;;;;;;5114132;28;20068;-61
2023/12/26 15:30:14;;;;;;;7.80;2.03;;;;;;;;;;5113259;28;20040;-61
2023/12/26 15:32:39;;;;;;;6.22;1.73;;;;;;;;;;5114135;28;20064;-61
2023/12/26 15:35:05;;;;;;;7.10;1.63;;;;;;;;;;5112072;28;20028;-61
2023/12/26 15:37:32;;;;;;;9.98;2.15;;;;;;;;;;5113936;28;20038;-61
2023/12/26 15:39:57;;;;;;;8.35;2.22;;;;;;;;;;5113928;28;20115;-61
2023/12/26 15:42:23;;;;;;;7.95;2.40;;;;;;;;;;5113077;28;20169;-62
2023/12/26 15:44:48;;;;;;;10.68;2.10;;;;;;;;;;5113899;28;20027;-62
2023/12/26 15:47:14;;;;;;;8.25;2.20;;;;;;;;;;5113024;28;20423;-62
2023/12/26 15:49:39;;;;;;;8.65;2.22;;;;;;;;;;5112629;28;20034;-62
2023/12/26 15:52:05;;;;;;;8.23;1.65;;;;;;;;;;5114018;28;20525;-61
2023/12/26 15:54:31;;;;;;;12.98;2.88;;;;;;;;;;5112239;28;20057;-62
2023/12/26 15:56:56;;;;;;;13.15;2.97;;;;;;;;;;5113030;28;20357;-62
2023/12/26 15:59:22;;;;;;;8.60;2.05;;;;;;;;;;5112659;28;20028;-61
2023/12/26 16:01:47;;;;;;;10.88;1.92;;;;;;;;;;5113600;28;20027;-61
2023/12/26 16:04:14;;;;;;;12.77;2.17;;;;;;;;;;5112802;28;20030;-61
2023/12/26 16:06:40;;;;;;;9.38;1.98;;;;;;;;;;5112283;28;20383;-61
2023/12/26 16:09:06;;;;;;;10.30;2.45;;;;;;;;;;5112717;28;20023;-61
2023/12/26 16:11:34;;;;;;;9.18;2.40;;;;;;;;;;5112408;28;20032;-61
2023/12/26 16:14:00;;;;;;;10.10;2.55;;;;;;;;;;5112347;28;20156;-61
2023/12/26 16:16:25;;;;;;;9.65;2.10;;;;;;;;;;5112191;28;20119;-62
2023/12/26 16:18:51;;;;;;;6.97;2.28;;;;;;;;;;5092815;28;20092;-62
2023/12/26 16:21:17;;;;;;;6.03;1.90;;;;;;;;;;5112270;28;20089;-62
2023/12/26 16:23:42;;;;;;;9.60;2.05;;;;;;;;;;5113074;28;20047;-63
2023/12/26 16:26:08;;;;;;;9.27;2.38;;;;;;;;;;5112828;28;20436;-62
2023/12/26 16:28:35;;;;;;;12.77;2.65;;;;;;;;;;5112652;28;20470;-61
2023/12/26 16:31:04;;;;;;;11.18;2.40;;;;;;;;;;5094660;28;20472;-62
2023/12/26 16:33:33;;;;;;;10.70;2.10;;;;;;;;;;5111065;28;20257;-61
2023/12/26 16:36:00;;;;;;;10.18;2.10;;;;;;;;;;5113169;28;20036;-61
2023/12/26 16:38:25;;;;;;;6.25;2.10;;;;;;;;;;5111963;28;20106;-61
2023/12/26 16:40:51;;;;;;;7.18;2.15;;;;;;;;;;5112551;28;20067;-60
2023/12/26 16:43:17;;;;;;;7.68;2.00;;;;;;;;;;5111965;28;20027;-60
2023/12/26 16:45:43;;;;;;;7.18;1.90;;;;;;;;;;5112712;28;20023;-60
2023/12/26 16:48:09;;;;;;;6.40;1.60;;;;;;;;;;5111914;28;20384;-61
2023/12/26 16:50:34;;;;;;;5.60;1.98;;;;;;;;;;5112224;28;20030;-61
2023/12/26 16:53:00;;;;;;;7.68;1.95;;;;;;;;;;5094390;28;20035;-62
2023/12/26 16:55:25;;;;;;;9.88;2.10;;;;;;;;;;5111817;28;20023;-61
2023/12/26 16:57:51;;;;;;;6.80;2.15;;;;;;;;;;5112546;28;20535;-61
2023/12/26 17:00:16;;;;;;;7.85;2.15;;;;;;;;;;5111603;28;20031;-61
2023/12/26 17:02:42;;;;;;;6.00;1.80;;;;;;;;;;5111600;28;20039;-61
2023/12/26 17:05:07;;;;;;;6.22;2.05;;;;;;;;;;5111975;28;20031;-61
2023/12/26 17:07:33;;;;;;;9.52;2.08;;;;;;;;;;5111248;28;20042;-61
2023/12/26 17:09:59;;;;;;;6.85;1.90;;;;;;;;;;5112391;28;20176;-61
2023/12/26 17:12:24;;;;;;;5.97;1.92;;;;;;;;;;5111913;28;20032;-61
2023/12/26 17:14:50;;;;;;;6.82;1.75;;;;;;;;;;5094034;28;20042;-61
2023/12/26 17:17:15;;;;;;;6.03;1.73;;;;;;;;;;5111177;28;20027;-61
2023/12/26 17:19:41;;;;;;;5.85;1.73;;;;;;;;;;5109664;28;20466;-61
2023/12/26 17:22:10;;;;;;;6.47;1.90;;;;;;;;;;5112083;28;20043;-61
2023/12/26 17:24:38;;;;;;;3.75;1.63;;;;;;;;;;5110556;28;20027;-61
2023/12/26 17:27:05;;;;;;;5.78;1.60;;;;;;;;;;5111937;28;20051;-61
2023/12/26 17:29:31;;;;;;;7.35;2.28;;;;;;;;;;5111283;28;20865;-61
2023/12/26 17:31:58;;;;;;;8.18;2.00;;;;;;;;;;5111753;28;20364;-61
2023/12/26 17:34:24;;;;;;;7.88;2.10;;;;;;;;;;5111723;28;20472;-61
2023/12/26 17:36:51;;;;;;;8.57;2.20;;;;;;;;;;5111909;28;20118;-61